Itara — EA4760 — position and weather

sailwx.info

Track history (hours):
 
Tides and Currents Weather Stations Pressure Air Temp Water Temp Dewpoint Dewpoint Depression Visibility Wind Speed Wind Dir Waves Ship Positions

Itara

Last reported at 2017-Sep-20 18:57 UTC. Time now 2017-Sep-21 01:41 UTC.
Position N 28°09' W 015°25'.

Length 18 m.

Type: Port tender. MMSI: 224016190.

Date/timePositionNaut miles runAvg speedWind from/ knotsBaromVisibWave heightAir tempDewpointWater temp
2017-Sep-20 18:57N 28°09' W 015°25'2 3.2
2017-Sep-20 18:26N 28°07' W 015°25'0 1.0
2017-Sep-20 18:00N 28°07' W 015°24'0 0.1
2017-Sep-20 17:30N 28°07' W 015°24'2 4.2
2017-Sep-20 16:58N 28°09' W 015°25'0 0.0
2017-Sep-20 16:28N 28°09' W 015°25'0 0.0
2017-Sep-20 16:00N 28°09' W 015°25'0 0.0
2017-Sep-20 11:34N 28°09' W 015°25'0 5.6
2017-Sep-20 11:30N 28°08' W 015°25'3 5.5
2017-Sep-20 10:58N 28°06' W 015°24'3 5.6
2017-Sep-20 10:21N 28°09' W 015°25'0 0.0
2017-Sep-20 09:54N 28°09' W 015°25'0 0.0
2017-Sep-20 09:27N 28°09' W 015°25'0 0.0
2017-Sep-20 08:57N 28°09' W 015°25'0 0.0
2017-Sep-20 08:27N 28°09' W 015°25'0 0.0
2017-Sep-20 07:59N 28°09' W 015°25'0 0.0
2017-Sep-20 07:29N 28°09' W 015°25'1 1.1
2017-Sep-20 06:55N 28°08' W 015°25'2 3.8
2017-Sep-20 06:28N 28°07' W 015°24'2 0.1
2017-Sep-19 13:13N 28°09' W 015°25'1 5.6
2017-Sep-19 13:00N 28°08' W 015°25'1 0.4
2017-Sep-19 10:04N 28°09' W 015°25'0 0.0
2017-Sep-19 09:58N 28°09' W 015°25'1 2.7
2017-Sep-19 09:30N 28°08' W 015°25'2 2.5
2017-Sep-19 08:54N 28°06' W 015°24'0 0.0
2017-Sep-19 08:26N 28°06' W 015°24'0 0.0
2017-Sep-19 07:56N 28°06' W 015°24'2 3.3
2017-Sep-19 07:25N 28°08' W 015°25'1 2.7
2017-Sep-19 07:00N 28°09' W 015°25'0 0.0
2017-Sep-19 06:30N 28°09' W 015°25'0 0.0
2017-Sep-18 14:39N 28°09' W 015°25'0 0.0
2017-Sep-18 14:25N 28°09' W 015°25'0 0.0
2017-Sep-18 13:58N 28°09' W 015°25'0 0.0
2017-Sep-18 13:28N 28°09' W 015°25'0 0.0
2017-Sep-18 12:58N 28°09' W 015°25'0 0.0
2017-Sep-18 12:28N 28°09' W 015°25'0 0.0
2017-Sep-18 11:58N 28°09' W 015°25'0 0.0
2017-Sep-18 11:28N 28°09' W 015°25'0 0.0
2017-Sep-18 11:00N 28°09' W 015°25'0 0.0
2017-Sep-18 10:30N 28°09' W 015°25'0 0.0
2017-Sep-18 08:58N 28°09' W 015°25'2 5.1
2017-Sep-18 08:29N 28°06' W 015°24'1 2.0
2017-Sep-18 07:59N 28°07' W 015°25'2 3.0
2017-Sep-18 07:28N 28°09' W 015°25'0 0.0
2017-Sep-18 06:58N 28°09' W 015°25'0 0.0
2017-Sep-17 12:44N 28°09' W 015°25'1 2.9
2017-Sep-17 12:28N 28°08' W 015°25'1 2.9
2017-Sep-17 11:57N 28°09' W 015°24'1 3.1
2017-Sep-17 11:28N 28°07' W 015°24'2 0.2
2017-Sep-17 02:43N 28°09' W 015°25'1 3.5
2017-Sep-17 02:30N 28°08' W 015°25'1 2.4
2017-Sep-17 01:56N 28°07' W 015°25'2 4.7
2017-Sep-17 01:29N 28°09' W 015°25'0 0.0
2017-Sep-16 10:15N 28°09' W 015°25'0 0.0
2017-Sep-16 10:00N 28°09' W 015°25'0 0.0
2017-Sep-16 09:30N 28°09' W 015°25'0 0.0
2017-Sep-16 09:00N 28°09' W 015°25'0 0.6
2017-Sep-16 08:27N 28°08' W 015°25'2 3.4
2017-Sep-16 07:56N 28°07' W 015°24'2 4.3
2017-Sep-16 07:27N 28°09' W 015°25'0 0.0
2017-Sep-16 06:57N 28°09' W 015°25'0 0.0
2017-Sep-15 18:29N 28°09' W 015°25'0 0.2
2017-Sep-15 17:57N 28°09' W 015°25'3 5.6
2017-Sep-15 17:27N 28°06' W 015°24'1 1.2
2017-Sep-15 16:56N 28°06' W 015°24'2 4.6
2017-Sep-15 16:30N 28°07' W 015°25'1 0.4
2017-Sep-15 13:13N 28°09' W 015°25'0 0.9
2017-Sep-15 13:00N 28°09' W 015°25'0 0.5
2017-Sep-15 12:26N 28°09' W 015°25'0 0.0
2017-Sep-15 11:58N 28°09' W 015°25'0 0.1
2017-Sep-15 10:02N 28°09' W 015°25'0 5.8
2017-Sep-15 10:00N 28°09' W 015°25'4 7.1
2017-Sep-15 09:30N 28°05' W 015°24'2 4.3
2017-Sep-15 08:57N 28°07' W 015°25'2 4.6
2017-Sep-15 08:30N 28°05' W 015°24'1 2.3
2017-Sep-15 08:00N 28°06' W 015°24'3 4.1
2017-Sep-15 07:24N 28°09' W 015°25'0 0.9
2017-Sep-15 06:56N 28°08' W 015°25'0 0.0
2017-Sep-13 10:52N 28°09' W 015°25'0 0.1
2017-Sep-13 10:26N 28°09' W 015°25'0 0.0
2017-Sep-13 09:56N 28°09' W 015°25'0 0.0
2017-Sep-13 09:26N 28°09' W 015°25'0 0.0
2017-Sep-13 08:59N 28°09' W 015°25'0 0.0
2017-Sep-13 08:29N 28°09' W 015°25'0 0.0
2017-Sep-13 07:59N 28°09' W 015°25'0 0.0
2017-Sep-13 07:29N 28°09' W 015°25'2 2.5
2017-Sep-13 06:53N 28°07' W 015°25'2 3.3
2017-Sep-13 06:26N 28°09' W 015°25'0 0.0
2017-Sep-13 05:59N 28°09' W 015°25'0 0.0
2017-Sep-12 18:53N 28°09' W 015°25'2 3.2
2017-Sep-12 18:25N 28°08' W 015°24'1 2.0
2017-Sep-12 17:59N 28°08' W 015°24'2 1.1
2017-Sep-12 16:31N 28°09' W 015°25'0 0.0
2017-Sep-12 16:30N 28°09' W 015°25'2 2.9
2017-Sep-12 15:56N 28°07' W 015°24'1 3.3
2017-Sep-12 15:30N 28°08' W 015°26'0 0.5
2017-Sep-12 14:26N 28°09' W 015°25'3 6.7
2017-Sep-12 13:55N 28°08' W 015°22'3 5.5
2017-Sep-12 13:25N 28°07' W 015°25'0 0.9
2017-Sep-12 13:00N 28°08' W 015°25'1 1.6
2017-Sep-12 12:29N 28°08' W 015°26'1 1.8
2017-Sep-12 11:58N 28°08' W 015°25'1 2.6
2017-Sep-12 11:28N 28°09' W 015°25'0 0.0
2017-Sep-12 10:53N 28°09' W 015°25'0 1.1
2017-Sep-12 10:26N 28°08' W 015°25'2 3.7
2017-Sep-12 09:56N 28°07' W 015°24'1 1.4
2017-Sep-12 09:30N 28°07' W 015°25'1 1.6
2017-Sep-12 09:00N 28°08' W 015°25'1 2.4
2017-Sep-12 08:23N 28°06' W 015°24'3 5.4
2017-Sep-12 07:55N 28°09' W 015°25'0 0.0
2017-Sep-12 07:25N 28°09' W 015°25'0 0.0
2017-Sep-12 06:55N 28°09' W 015°25'0 0.1
2017-Sep-12 05:01N 28°09' W 015°25'0 7.0
2017-Sep-12 05:00N 28°09' W 015°25'2 4.6
2017-Sep-12 04:31N 28°06' W 015°24'2 2.0
2017-Sep-12 03:18N 28°09' W 015°25'2 7.0
2017-Sep-12 02:58N 28°07' W 015°24'1 2.4
2017-Sep-12 02:30N 28°08' W 015°25'1 0.3
2017-Sep-11 22:14N 28°09' W 015°25'1 2.7
2017-Sep-11 21:58N 28°08' W 015°25'1 2.6
2017-Sep-11 21:26N 28°09' W 015°24'2 3.1
2017-Sep-11 20:56N 28°09' W 015°25'0 0.1
2017-Sep-11 19:10N 28°09' W 015°25'1 6.9
2017-Sep-11 18:59N 28°07' W 015°25'1 1.3
2017-Sep-11 18:29N 28°07' W 015°24'1 2.3
2017-Sep-11 17:57N 28°09' W 015°24'1 1.2
2017-Sep-11 17:30N 28°08' W 015°24'1 2.5
2017-Sep-11 16:57N 28°07' W 015°24'2 1.3
2017-Sep-11 15:33N 28°09' W 015°25'0 0.0
2017-Sep-11 15:27N 28°09' W 015°25'3 6.0
2017-Sep-11 14:56N 28°07' W 015°23'0 0.7
2017-Sep-11 14:30N 28°07' W 015°23'3 4.9
2017-Sep-11 13:56N 28°09' W 015°25'1 2.7
2017-Sep-11 13:24N 28°07' W 015°25'1 2.2
2017-Sep-11 12:51N 28°09' W 015°24'1 3.3
2017-Sep-11 12:30N 28°08' W 015°24'  
Track history (hours):
 
Tides and Currents Weather Stations Pressure Air Temp Water Temp Dewpoint Dewpoint Depression Visibility Wind Speed Wind Dir Waves Ship Positions

Itara

Last reported at 2017-Sep-20 18:57 UTC. Time now 2017-Sep-21 01:41 UTC.
Position N 28°09' W 015°25'.

Length 18 m.

Type: Port tender. MMSI: 224016190.

Date/timePositionNaut miles runAvg speedWind from/ knotsBaromVisibWave heightAir tempDewpointWater temp
2017-Sep-20 18:57N 28°09' W 015°25'2 3.2
2017-Sep-20 18:26N 28°07' W 015°25'0 1.0
2017-Sep-20 18:00N 28°07' W 015°24'0 0.1
2017-Sep-20 17:30N 28°07' W 015°24'2 4.2
2017-Sep-20 16:58N 28°09' W 015°25'0 0.0
2017-Sep-20 16:28N 28°09' W 015°25'0 0.0
2017-Sep-20 16:00N 28°09' W 015°25'0 0.0
2017-Sep-20 11:34N 28°09' W 015°25'0 5.6
2017-Sep-20 11:30N 28°08' W 015°25'3 5.5
2017-Sep-20 10:58N 28°06' W 015°24'3 5.6
2017-Sep-20 10:21N 28°09' W 015°25'0 0.0
2017-Sep-20 09:54N 28°09' W 015°25'0 0.0
2017-Sep-20 09:27N 28°09' W 015°25'0 0.0
2017-Sep-20 08:57N 28°09' W 015°25'0 0.0
2017-Sep-20 08:27N 28°09' W 015°25'0 0.0
2017-Sep-20 07:59N 28°09' W 015°25'0 0.0
2017-Sep-20 07:29N 28°09' W 015°25'1 1.1
2017-Sep-20 06:55N 28°08' W 015°25'2 3.8
2017-Sep-20 06:28N 28°07' W 015°24'2 0.1
2017-Sep-19 13:13N 28°09' W 015°25'1 5.6
2017-Sep-19 13:00N 28°08' W 015°25'1 0.4
2017-Sep-19 10:04N 28°09' W 015°25'0 0.0
2017-Sep-19 09:58N 28°09' W 015°25'1 2.7
2017-Sep-19 09:30N 28°08' W 015°25'2 2.5
2017-Sep-19 08:54N 28°06' W 015°24'0 0.0
2017-Sep-19 08:26N 28°06' W 015°24'0 0.0
2017-Sep-19 07:56N 28°06' W 015°24'2 3.3
2017-Sep-19 07:25N 28°08' W 015°25'1 2.7
2017-Sep-19 07:00N 28°09' W 015°25'0 0.0
2017-Sep-19 06:30N 28°09' W 015°25'0 0.0
2017-Sep-18 14:39N 28°09' W 015°25'0 0.0
2017-Sep-18 14:25N 28°09' W 015°25'0 0.0
2017-Sep-18 13:58N 28°09' W 015°25'0 0.0
2017-Sep-18 13:28N 28°09' W 015°25'0 0.0
2017-Sep-18 12:58N 28°09' W 015°25'0 0.0
2017-Sep-18 12:28N 28°09' W 015°25'0 0.0
2017-Sep-18 11:58N 28°09' W 015°25'0 0.0
2017-Sep-18 11:28N 28°09' W 015°25'0 0.0
2017-Sep-18 11:00N 28°09' W 015°25'0 0.0
2017-Sep-18 10:30N 28°09' W 015°25'0 0.0
2017-Sep-18 08:58N 28°09' W 015°25'2 5.1
2017-Sep-18 08:29N 28°06' W 015°24'1 2.0
2017-Sep-18 07:59N 28°07' W 015°25'2 3.0
2017-Sep-18 07:28N 28°09' W 015°25'0 0.0
2017-Sep-18 06:58N 28°09' W 015°25'0 0.0
2017-Sep-17 12:44N 28°09' W 015°25'1 2.9
2017-Sep-17 12:28N 28°08' W 015°25'1 2.9
2017-Sep-17 11:57N 28°09' W 015°24'1 3.1
2017-Sep-17 11:28N 28°07' W 015°24'2 0.2
2017-Sep-17 02:43N 28°09' W 015°25'1 3.5
2017-Sep-17 02:30N 28°08' W 015°25'1 2.4
2017-Sep-17 01:56N 28°07' W 015°25'2 4.7
2017-Sep-17 01:29N 28°09' W 015°25'0 0.0
2017-Sep-16 10:15N 28°09' W 015°25'0 0.0
2017-Sep-16 10:00N 28°09' W 015°25'0 0.0
2017-Sep-16 09:30N 28°09' W 015°25'0 0.0
2017-Sep-16 09:00N 28°09' W 015°25'0 0.6
2017-Sep-16 08:27N 28°08' W 015°25'2 3.4
2017-Sep-16 07:56N 28°07' W 015°24'2 4.3
2017-Sep-16 07:27N 28°09' W 015°25'0 0.0
2017-Sep-16 06:57N 28°09' W 015°25'0 0.0
2017-Sep-15 18:29N 28°09' W 015°25'0 0.2
2017-Sep-15 17:57N 28°09' W 015°25'3 5.6
2017-Sep-15 17:27N 28°06' W 015°24'1 1.2
2017-Sep-15 16:56N 28°06' W 015°24'2 4.6
2017-Sep-15 16:30N 28°07' W 015°25'1 0.4
2017-Sep-15 13:13N 28°09' W 015°25'0 0.9
2017-Sep-15 13:00N 28°09' W 015°25'0 0.5
2017-Sep-15 12:26N 28°09' W 015°25'0 0.0
2017-Sep-15 11:58N 28°09' W 015°25'0 0.1
2017-Sep-15 10:02N 28°09' W 015°25'0 5.8
2017-Sep-15 10:00N 28°09' W 015°25'4 7.1
2017-Sep-15 09:30N 28°05' W 015°24'2 4.3
2017-Sep-15 08:57N 28°07' W 015°25'2 4.6
2017-Sep-15 08:30N 28°05' W 015°24'1 2.3
2017-Sep-15 08:00N 28°06' W 015°24'3 4.1
2017-Sep-15 07:24N 28°09' W 015°25'0 0.9
2017-Sep-15 06:56N 28°08' W 015°25'0 0.0
2017-Sep-13 10:52N 28°09' W 015°25'0 0.1
2017-Sep-13 10:26N 28°09' W 015°25'0 0.0
2017-Sep-13 09:56N 28°09' W 015°25'0 0.0
2017-Sep-13 09:26N 28°09' W 015°25'0 0.0
2017-Sep-13 08:59N 28°09' W 015°25'0 0.0
2017-Sep-13 08:29N 28°09' W 015°25'0 0.0
2017-Sep-13 07:59N 28°09' W 015°25'0 0.0
2017-Sep-13 07:29N 28°09' W 015°25'2 2.5
2017-Sep-13 06:53N 28°07' W 015°25'2 3.3
2017-Sep-13 06:26N 28°09' W 015°25'0 0.0
2017-Sep-13 05:59N 28°09' W 015°25'0 0.0
2017-Sep-12 18:53N 28°09' W 015°25'2 3.2
2017-Sep-12 18:25N 28°08' W 015°24'1 2.0
2017-Sep-12 17:59N 28°08' W 015°24'2 1.1
2017-Sep-12 16:31N 28°09' W 015°25'0 0.0
2017-Sep-12 16:30N 28°09' W 015°25'2 2.9
2017-Sep-12 15:56N 28°07' W 015°24'1 3.3
2017-Sep-12 15:30N 28°08' W 015°26'0 0.5
2017-Sep-12 14:26N 28°09' W 015°25'3 6.7
2017-Sep-12 13:55N 28°08' W 015°22'3 5.5
2017-Sep-12 13:25N 28°07' W 015°25'0 0.9
2017-Sep-12 13:00N 28°08' W 015°25'1 1.6
2017-Sep-12 12:29N 28°08' W 015°26'1 1.8
2017-Sep-12 11:58N 28°08' W 015°25'1 2.6
2017-Sep-12 11:28N 28°09' W 015°25'0 0.0
2017-Sep-12 10:53N 28°09' W 015°25'0 1.1
2017-Sep-12 10:26N 28°08' W 015°25'2 3.7
2017-Sep-12 09:56N 28°07' W 015°24'1 1.4
2017-Sep-12 09:30N 28°07' W 015°25'1 1.6
2017-Sep-12 09:00N 28°08' W 015°25'1 2.4
2017-Sep-12 08:23N 28°06' W 015°24'3 5.4
2017-Sep-12 07:55N 28°09' W 015°25'0 0.0
2017-Sep-12 07:25N 28°09' W 015°25'0 0.0
2017-Sep-12 06:55N 28°09' W 015°25'0 0.1
2017-Sep-12 05:01N 28°09' W 015°25'0 7.0
2017-Sep-12 05:00N 28°09' W 015°25'2 4.6
2017-Sep-12 04:31N 28°06' W 015°24'2 2.0
2017-Sep-12 03:18N 28°09' W 015°25'2 7.0
2017-Sep-12 02:58N 28°07' W 015°24'1 2.4
2017-Sep-12 02:30N 28°08' W 015°25'1 0.3
2017-Sep-11 22:14N 28°09' W 015°25'1 2.7
2017-Sep-11 21:58N 28°08' W 015°25'1 2.6
2017-Sep-11 21:26N 28°09' W 015°24'2 3.1
2017-Sep-11 20:56N 28°09' W 015°25'0 0.1
2017-Sep-11 19:10N 28°09' W 015°25'1 6.9
2017-Sep-11 18:59N 28°07' W 015°25'1 1.3
2017-Sep-11 18:29N 28°07' W 015°24'1 2.3
2017-Sep-11 17:57N 28°09' W 015°24'1 1.2
2017-Sep-11 17:30N 28°08' W 015°24'1 2.5
2017-Sep-11 16:57N 28°07' W 015°24'2 1.3
2017-Sep-11 15:33N 28°09' W 015°25'0 0.0
2017-Sep-11 15:27N 28°09' W 015°25'3 6.0
2017-Sep-11 14:56N 28°07' W 015°23'0 0.7
2017-Sep-11 14:30N 28°07' W 015°23'3 4.9
2017-Sep-11 13:56N 28°09' W 015°25'1 2.7
2017-Sep-11 13:24N 28°07' W 015°25'1 2.2
2017-Sep-11 12:51N 28°09' W 015°24'1 3.3
2017-Sep-11 12:30N 28°08' W 015°24'  

Dump ship's entire track history